Kezdőlap
METAR-TAF:

METAR-TAF

Repülőterek :

Ames, Iowa, Amerikai Egyesült Államok

földrajzi szélesség: 41-59-26N, földrajzi hosszúság: 093-37-08W, magasság: 288 m

Jelenlegi meteorológiai megfigyelések

A jelentés 55 perccel ezelõtt készült, 18:53 UTC
Kelet-délkeleti szél 9 kt széllökések: 15 kt
Hőmérséklet 31°C
Páratartalom 46%
Légköri nyomás 1018 hPa
Látótávolság: 16.1 km
Kevés felhő 5500 lábon

METAR: KAMW 031853Z AUTO 12009G15KT 10SM FEW055 31/18 A3007 RMK AO2 SLP170 T03110183

Idő: 14:48 (19:48 UTC)


TAF: hiányzik

Meteorológiai megfigyelések és előrejelzések több, mint 4000 repülőtéren (METAR és TAF jelentéseket).

A térképen piros és sárga pontok jelzik az elérhető meteorológiai állomásokat.

Mozgassa az egeret a pont fölött, hogy megjelenjen az állomás neve.

Azután kattintson az időjárási megfigyelések és előrejelzések megtekintéséhez.

A térkép megváltoztatása: kattintson a fekete keresztel jelölt zöld gombra ráközelítéshez, a vonallal jelölt zöld gombra távolításhoz, vagy a zöld nyilakra a szomszédos térképek eléréséhez.


METAR-TAF: